Time;durP1;ratioP1;P1;durP2;ratioP2;P2;SDS_P1;SDS_P2;PMS_P1;PMS_P2;Temp;Humidity;BMP_temperature;BMP_pressure;BME280_temperature;BME280_humidity;BME280_pressure;Samples;Min_cycle;Max_cycle;Signal;HPM_P1;HPM_P2
2023/05/22 04:01:38;;;;;;;3.60;3.07;;;16.40;97.30;;;;;;5531764;23;21056;-83
2023/05/22 04:04:04;;;;;;;3.87;3.40;;;16.40;97.30;;;;;;4961206;28;20558;-85
2023/05/22 04:06:32;;;;;;;6.50;3.40;;;16.40;97.30;;;;;;4957092;28;20203;-83
2023/05/22 04:09:06;;;;;;;6.70;2.77;;;16.40;97.30;;;;;;4982188;28;20413;-84
2023/05/22 04:11:32;;;;;;;3.80;3.00;;;16.40;97.30;;;;;;4950158;28;20931;-85
2023/05/22 04:14:02;;;;;;;4.83;3.67;;;16.40;97.30;;;;;;4952920;28;20425;-84
2023/05/22 04:16:27;;;;;;;5.10;2.80;;;16.40;97.30;;;;;;4957046;28;20640;-85
2023/05/22 04:18:53;;;;;;;3.97;3.00;;;16.40;97.30;;;;;;4955916;28;20448;-85
2023/05/22 04:21:21;;;;;;;5.07;3.23;;;16.40;97.30;;;;;;4989706;28;20360;-86
2023/05/22 04:23:46;;;;;;;3.80;2.90;;;16.40;97.30;;;;;;4972829;28;20223;-85
2023/05/22 04:26:12;;;;;;;4.73;3.03;;;16.40;97.30;;;;;;4962994;28;20686;-84
2023/05/22 04:28:38;;;;;;;7.83;3.63;;;16.40;97.30;;;;;;4951312;28;20233;-86
2023/05/22 04:31:05;;;;;;;3.40;2.40;;;16.40;97.30;;;;;;4947988;28;20255;-84
2023/05/22 04:33:33;;;;;;;5.70;3.90;;;16.40;97.30;;;;;;4972058;28;20426;-83
2023/05/22 04:35:59;;;;;;;3.03;2.83;;;16.40;97.30;;;;;;4970203;28;20427;-83
2023/05/22 04:38:25;;;;;;;4.27;3.27;;;16.40;97.30;;;;;;4955647;28;20422;-83
2023/05/22 04:40:51;;;;;;;2.70;2.50;;;16.40;97.30;;;;;;4949832;28;20454;-84
2023/05/22 04:43:17;;;;;;;3.97;3.17;;;16.40;97.30;;;;;;4951788;28;20626;-83
2023/05/22 04:45:43;;;;;;;3.67;3.00;;;16.50;97.30;;;;;;4972184;28;20414;-85
2023/05/22 04:48:10;;;;;;;3.47;3.07;;;16.50;97.30;;;;;;4959982;28;20175;-83
2023/05/22 04:50:37;;;;;;;2.53;2.30;;;16.50;97.30;;;;;;4980848;28;20175;-84
2023/05/22 04:53:03;;;;;;;5.50;4.30;;;16.50;97.30;;;;;;4954654;28;20417;-82
2023/05/22 04:55:32;;;;;;;2.80;2.67;;;16.60;97.30;;;;;;4957037;28;20482;-84
2023/05/22 04:57:58;;;;;;;3.13;2.93;;;16.60;97.30;;;;;;4952160;28;20780;-84
2023/05/22 05:00:25;;;;;;;6.20;3.90;;;16.60;97.30;;;;;;4954052;28;20525;-83
2023/05/22 05:02:51;;;;;;;4.47;3.07;;;16.70;97.30;;;;;;4949311;28;21015;-85
2023/05/22 05:05:16;;;;;;;4.90;3.50;;;16.70;97.30;;;;;;4966283;28;20445;-84
2023/05/22 05:07:42;;;;;;;4.33;4.00;;;16.70;97.30;;;;;;4945013;28;20174;-84
2023/05/22 05:10:08;;;;;;;9.43;4.77;;;16.80;97.30;;;;;;4956245;28;20173;-83
2023/05/22 05:12:33;;;;;;;4.80;3.90;;;16.80;97.30;;;;;;4948808;28;20293;-83
2023/05/22 05:14:59;;;;;;;4.97;3.43;;;16.80;97.30;;;;;;4952506;28;20505;-85
2023/05/22 05:17:25;;;;;;;4.10;3.00;;;16.80;97.30;;;;;;4947173;28;20382;-84
2023/05/22 05:19:52;;;;;;;4.67;4.37;;;16.90;97.30;;;;;;4952965;28;20664;-84
2023/05/22 05:22:18;;;;;;;8.70;4.17;;;16.90;97.30;;;;;;4946401;28;20587;-85
2023/05/22 05:24:43;;;;;;;2.77;2.63;;;17.00;97.30;;;;;;4945095;28;20425;-84
2023/05/22 05:27:14;;;;;;;3.30;3.20;;;17.00;97.30;;;;;;4957571;28;20628;-84
2023/05/22 05:29:42;;;;;;;8.30;3.77;;;17.00;97.30;;;;;;4949683;28;20175;-83
2023/05/22 05:32:15;;;;;;;2.30;2.10;;;17.10;97.30;;;;;;4950201;28;20449;-84
2023/05/22 05:34:43;;;;;;;6.23;3.47;;;17.10;97.30;;;;;;4954078;28;20453;-83
2023/05/22 05:37:11;;;;;;;4.30;3.47;;;17.20;97.30;;;;;;4944299;28;20418;-84
2023/05/22 05:39:36;;;;;;;9.60;4.90;;;17.30;97.30;;;;;;4949839;28;20599;-84
2023/05/22 05:42:04;;;;;;;4.17;3.17;;;17.30;97.30;;;;;;4954870;28;20462;-84
2023/05/22 05:44:32;;;;;;;3.27;3.13;;;17.40;97.30;;;;;;4940092;28;20167;-83
2023/05/22 05:46:57;;;;;;;6.23;3.03;;;17.40;97.30;;;;;;4950360;28;20497;-84
2023/05/22 05:49:23;;;;;;;6.20;3.47;;;17.50;97.30;;;;;;4971082;28;20449;-85
2023/05/22 05:51:56;;;;;;;2.40;2.23;;;17.60;97.30;;;;;;4950008;28;20195;-83
2023/05/22 05:54:25;;;;;;;8.80;3.50;;;17.70;97.30;;;;;;4961611;28;20265;-84
2023/05/22 05:56:50;;;;;;;5.10;3.00;;;17.70;97.30;;;;;;4955163;28;20424;-86
2023/05/22 05:59:16;;;;;;;4.80;2.87;;;17.80;97.30;;;;;;4946694;28;20501;-84
2023/05/22 06:01:44;;;;;;;4.47;3.77;;;17.80;97.30;;;;;;4973781;28;20272;-83
2023/05/22 06:04:15;;;;;;;4.87;3.77;;;17.90;97.30;;;;;;4942529;28;20234;-86
2023/05/22 06:06:46;;;;;;;5.73;2.90;;;18.00;97.30;;;;;;4957227;28;20421;-86
2023/05/22 06:09:14;;;;;;;4.60;3.50;;;18.00;97.30;;;;;;4960632;28;20419;-84
2023/05/22 06:11:44;;;;;;;4.90;3.43;;;18.10;97.30;;;;;;4946720;28;21022;-85
2023/05/22 06:14:17;;;;;;;3.27;3.10;;;18.20;97.30;;;;;;4967678;28;20426;-84
2023/05/22 06:16:45;;;;;;;11.03;2.73;;;18.20;97.30;;;;;;4955391;28;20414;-83
2023/05/22 06:19:13;;;;;;;3.40;2.97;;;18.30;97.30;;;;;;4955535;28;20426;-84
2023/05/22 06:21:39;;;;;;;4.10;3.70;;;18.40;97.30;;;;;;4958607;28;20441;-83
2023/05/22 06:24:05;;;;;;;7.70;3.10;;;18.40;97.30;;;;;;4975793;28;20453;-84
2023/05/22 06:26:30;;;;;;;13.53;4.80;;;18.50;97.30;;;;;;4969239;28;20162;-86
2023/05/22 06:28:56;;;;;;;10.03;4.63;;;18.50;97.30;;;;;;4990121;28;20702;-83
2023/05/22 06:31:23;;;;;;;5.97;4.30;;;18.60;97.30;;;;;;4973803;28;20238;-84
2023/05/22 06:33:50;;;;;;;29.47;3.87;;;18.70;97.30;;;;;;4971614;28;20175;-84
2023/05/22 06:36:16;;;;;;;3.93;3.30;;;18.70;97.30;;;;;;4972371;28;20429;-83
2023/05/22 06:38:42;;;;;;;6.00;3.87;;;18.80;97.30;;;;;;4968156;28;20419;-85
2023/05/22 06:41:07;;;;;;;3.03;2.57;;;18.90;97.30;;;;;;5001639;28;20205;-83
2023/05/22 06:43:33;;;;;;;4.07;3.57;;;19.00;97.30;;;;;;4990623;28;20460;-84
2023/05/22 06:46:01;;;;;;;3.00;2.23;;;19.00;97.30;;;;;;4988422;28;20347;-84
2023/05/22 06:48:26;;;;;;;4.10;3.90;;;19.10;97.30;;;;;;4965405;28;20204;-85
2023/05/22 06:50:54;;;;;;;6.33;3.67;;;19.20;97.30;;;;;;4956646;28;20783;-85
2023/05/22 06:53:22;;;;;;;3.60;3.30;;;19.30;97.30;;;;;;4962603;28;20207;-85
2023/05/22 06:55:48;;;;;;;4.07;2.77;;;19.40;97.30;;;;;;4967161;28;20433;-86
2023/05/22 06:58:13;;;;;;;4.20;3.80;;;19.50;97.30;;;;;;4972364;28;20422;-85
2023/05/22 07:00:46;;;;;;;4.70;3.77;;;19.60;97.30;;;;;;4952099;28;20720;-83
2023/05/22 07:03:14;;;;;;;3.20;3.00;;;19.70;97.30;;;;;;4950553;28;20206;-85
2023/05/22 07:05:40;;;;;;;6.33;3.97;;;19.80;97.30;;;;;;4956222;28;20442;-84
2023/05/22 07:08:07;;;;;;;3.37;2.30;;;19.80;97.30;;;;;;4970370;28;20509;-84
2023/05/22 07:10:32;;;;;;;3.80;3.60;;;19.90;97.30;;;;;;4945630;28;20497;-86
2023/05/22 07:12:58;;;;;;;5.03;3.40;;;20.00;97.30;;;;;;4957535;28;20504;-83
2023/05/22 07:15:23;;;;;;;3.20;2.53;;;20.00;97.30;;;;;;4960149;28;20185;-84
2023/05/22 07:17:51;;;;;;;3.13;2.93;;;20.00;97.20;;;;;;4949420;28;20266;-83
2023/05/22 07:20:17;;;;;;;6.03;3.00;;;20.10;97.10;;;;;;4948482;28;20192;-84
2023/05/22 07:22:42;;;;;;;3.30;2.70;;;20.10;97.30;;;;;;4976360;28;20457;-84
2023/05/22 07:25:08;;;;;;;2.80;2.13;;;20.20;97.30;;;;;;4973202;28;20636;-83
2023/05/22 07:27:33;;;;;;;3.97;2.40;;;20.30;97.30;;;;;;4966158;28;20194;-85
2023/05/22 07:30:06;;;;;;;3.70;2.80;;;20.40;96.70;;;;;;4956447;28;20418;-85
2023/05/22 07:32:32;;;;;;;2.57;2.37;;;20.50;96.90;;;;;;4964813;28;20736;-84
2023/05/22 07:34:57;;;;;;;3.10;2.40;;;20.60;96.80;;;;;;4952826;28;20434;-84
2023/05/22 07:37:23;;;;;;;3.33;2.83;;;20.70;96.20;;;;;;4948116;28;20290;-85
2023/05/22 07:39:55;;;;;;;6.00;3.10;;;20.80;96.20;;;;;;4949984;28;20233;-84
2023/05/22 07:42:24;;;;;;;3.20;3.00;;;20.90;96.20;;;;;;4978318;28;20210;-84
2023/05/22 07:44:50;;;;;;;5.57;3.60;;;21.00;96.00;;;;;;4947501;28;20458;-84
2023/05/22 07:47:16;;;;;;;4.50;4.00;;;21.00;95.60;;;;;;4947624;28;20457;-83
2023/05/22 07:49:42;;;;;;;7.83;3.90;;;21.10;95.50;;;;;;4944555;28;20182;-85
2023/05/22 07:52:07;;;;;;;6.30;3.33;;;21.20;95.50;;;;;;4969554;28;20194;-83
2023/05/22 07:54:33;;;;;;;2.77;2.37;;;21.20;95.50;;;;;;4980257;28;20539;-84
2023/05/22 07:57:02;;;;;;;4.77;3.07;;;21.30;95.10;;;;;;4952346;28;20174;-85
2023/05/22 07:59:27;;;;;;;3.00;2.40;;;21.30;95.00;;;;;;4963650;28;20228;-85
2023/05/22 08:01:55;;;;;;;4.87;3.10;;;21.30;95.20;;;;;;4938331;28;20468;-84
2023/05/22 08:04:33;;;;;;;4.40;3.10;;;21.40;95.30;;;;;;4934696;29;20204;-83
2023/05/22 08:07:04;;;;;;;3.43;2.40;;;21.50;95.50;;;;;;4937708;29;20416;-84
2023/05/22 08:09:31;;;;;;;3.07;2.90;;;21.60;95.70;;;;;;4932723;29;20420;-85
2023/05/22 08:11:57;;;;;;;6.70;4.27;;;21.70;95.40;;;;;;4933382;29;20804;-84
2023/05/22 08:14:24;;;;;;;3.63;2.40;;;21.80;95.60;;;;;;4937181;29;20420;-85
2023/05/22 08:16:52;;;;;;;4.13;3.07;;;21.90;95.50;;;;;;4935571;29;20180;-84
2023/05/22 08:19:18;;;;;;;3.30;2.97;;;21.90;95.10;;;;;;4918847;29;20515;-85
2023/05/22 08:21:45;;;;;;;5.33;3.33;;;22.00;95.10;;;;;;4933499;28;20530;-83
2023/05/22 08:24:11;;;;;;;2.43;2.23;;;22.00;94.80;;;;;;4935331;29;20207;-84
2023/05/22 08:26:37;;;;;;;4.63;3.40;;;22.10;94.40;;;;;;4934203;29;20949;-84
2023/05/22 08:29:05;;;;;;;5.53;2.80;;;22.10;94.20;;;;;;4941862;29;20179;-83
2023/05/22 08:31:38;;;;;;;2.40;2.27;;;22.20;94.00;;;;;;4933292;29;20605;-84
2023/05/22 08:34:06;;;;;;;6.63;3.87;;;22.20;93.20;;;;;;4934921;29;20941;-83
2023/05/22 08:36:34;;;;;;;5.10;2.67;;;22.20;92.90;;;;;;4928940;29;20765;-83
2023/05/22 08:39:09;;;;;;;3.17;2.20;;;22.30;93.30;;;;;;4957900;28;20419;-84
2023/05/22 08:41:34;;;;;;;5.03;3.10;;;22.30;93.20;;;;;;4933953;29;20513;-84
2023/05/22 08:44:04;;;;;;;6.00;2.93;;;22.30;92.90;;;;;;4947458;29;20483;-85
2023/05/22 08:46:36;;;;;;;3.77;2.40;;;22.40;92.20;;;;;;4964049;28;20183;-84
2023/05/22 08:49:05;;;;;;;2.60;2.40;;;22.40;91.60;;;;;;4964883;28;20486;-84
2023/05/22 08:51:37;;;;;;;3.33;2.47;;;22.40;92.00;;;;;;4945416;29;20444;-85
2023/05/22 08:54:08;;;;;;;3.67;3.30;;;22.50;91.90;;;;;;4942461;29;20422;-83
2023/05/22 08:56:38;;;;;;;3.97;3.80;;;22.60;91.60;;;;;;4944619;29;20455;-85
2023/05/22 08:59:05;;;;;;;6.73;3.10;;;22.80;92.10;;;;;;4951811;28;20874;-85
2023/05/22 09:01:34;;;;;;;8.10;2.80;;;22.90;91.40;;;;;;4950748;28;20480;-84
2023/05/22 09:04:01;;;;;;;3.73;3.03;;;23.10;90.40;;;;;;4966095;28;20490;-85
2023/05/22 09:06:28;;;;;;;2.97;2.77;;;23.20;90.70;;;;;;4961665;28;20457;-84
2023/05/22 09:08:55;;;;;;;4.67;2.53;;;23.30;91.20;;;;;;4961862;28;20449;-85
2023/05/22 09:11:21;;;;;;;2.83;2.17;;;23.40;90.90;;;;;;4963138;28;20505;-85
2023/05/22 09:13:47;;;;;;;3.00;2.30;;;23.60;90.40;;;;;;4951534;28;20454;-84
2023/05/22 09:16:14;;;;;;;8.97;3.40;;;23.80;90.00;;;;;;4957297;28;20937;-85
2023/05/22 09:18:43;;;;;;;3.27;2.43;;;24.00;89.90;;;;;;4943432;28;20433;-84
2023/05/22 09:21:10;;;;;;;3.10;2.90;;;24.20;89.60;;;;;;4950146;28;20854;-86
2023/05/22 09:23:36;;;;;;;3.13;2.53;;;24.40;88.30;;;;;;4956514;28;20703;-84
2023/05/22 09:26:04;;;;;;;2.30;2.17;;;24.60;86.30;;;;;;4948212;28;20434;-85
2023/05/22 09:28:34;;;;;;;6.00;2.97;;;24.60;84.80;;;;;;4947281;28;20413;-84
2023/05/22 09:31:00;;;;;;;6.20;3.77;;;24.60;85.40;;;;;;4940918;28;20446;-86
2023/05/22 09:33:27;;;;;;;5.23;3.63;;;24.70;84.50;;;;;;4932379;28;20921;-86
2023/05/22 09:35:52;;;;;;;2.40;2.20;;;24.80;83.20;;;;;;4945228;28;20429;-84
2023/05/22 09:38:22;;;;;;;3.13;1.90;;;24.90;82.80;;;;;;4943295;28;20500;-86
2023/05/22 09:40:55;;;;;;;6.23;2.77;;;25.00;82.90;;;;;;4950219;28;20207;-84
2023/05/22 09:43:25;;;;;;;4.87;3.00;;;25.00;81.70;;;;;;4953466;28;20463;-84
2023/05/22 09:45:59;;;;;;;3.47;3.30;;;25.10;81.90;;;;;;4952262;28;20490;-85
2023/05/22 09:48:25;;;;;;;5.00;2.20;;;25.10;81.90;;;;;;4945648;28;20446;-84
2023/05/22 09:50:55;;;;;;;3.33;2.10;;;25.20;82.30;;;;;;4950535;28;20461;-83
2023/05/22 09:53:26;;;;;;;1.93;1.87;;;25.20;81.80;;;;;;4948911;28;20179;-85
2023/05/22 09:55:53;;;;;;;5.60;2.77;;;25.10;82.90;;;;;;4946546;28;20422;-84
2023/05/22 09:58:26;;;;;;;2.10;1.97;;;25.10;81.80;;;;;;4947678;28;20425;-84
2023/05/22 10:00:55;;;;;;;5.50;2.60;;;25.10;82.20;;;;;;4946098;28;20478;-85
2023/05/22 10:03:26;;;;;;;3.80;3.37;;;25.00;82.50;;;;;;4948735;28;20467;-84
2023/05/22 10:05:57;;;;;;;6.23;1.93;;;25.00;82.30;;;;;;4963991;28;20415;-85
2023/05/22 10:08:26;;;;;;;3.70;2.30;;;25.00;81.80;;;;;;4947390;28;20478;-84
2023/05/22 10:10:52;;;;;;;3.47;2.30;;;25.00;82.00;;;;;;4952487;28;20435;-85
2023/05/22 10:13:19;;;;;;;2.53;2.30;;;25.00;81.90;;;;;;4952764;28;20421;-85
2023/05/22 10:15:46;;;;;;;2.30;2.10;;;25.10;82.70;;;;;;4960812;28;20191;-84
2023/05/22 10:18:13;;;;;;;2.87;2.23;;;25.10;83.20;;;;;;4954840;23;1020870;-81
2023/05/22 10:20:38;;;;;;;9.60;2.57;;;25.20;82.40;;;;;;4993041;28;20435;-83
2023/05/22 10:23:06;;;;;;;2.13;2.00;;;25.30;81.70;;;;;;5003010;28;20462;-81
2023/05/22 10:25:33;;;;;;;3.00;2.80;;;25.40;80.80;;;;;;4997748;28;20181;-80
2023/05/22 10:27:59;;;;;;;2.50;2.30;;;25.40;80.40;;;;;;4984741;28;21048;-84
2023/05/22 10:30:46;;;;;;;3.63;2.70;;;25.50;80.50;;;;;;4966941;28;20503;-84
2023/05/22 10:33:24;;;;;;;4.30;2.60;;;25.60;80.80;;;;;;4966261;28;20212;-83
2023/05/22 10:36:07;;;;;;;3.13;2.93;;;25.70;81.70;;;;;;4964405;28;20456;-84
2023/05/22 10:38:56;;;;;;;3.43;2.97;;;25.80;80.20;;;;;;4967216;28;20487;-80
2023/05/22 10:41:23;;;;;;;1.77;1.57;;;25.90;80.70;;;;;;4975045;28;20429;-85
2023/05/22 10:43:49;;;;;;;2.07;1.80;;;26.00;81.10;;;;;;4968964;28;20620;-83
2023/05/22 10:46:16;;;;;;;2.40;2.20;;;26.10;78.70;;;;;;4969472;28;20422;-83
2023/05/22 10:48:50;;;;;;;4.00;2.53;;;26.10;79.80;;;;;;4963943;28;20479;-84
2023/05/22 10:51:20;;;;;;;2.67;2.40;;;26.20;79.70;;;;;;4964517;28;20272;-84
2023/05/22 10:54:01;;;;;;;2.37;2.10;;;26.30;78.60;;;;;;4964449;28;20453;-83
2023/05/22 10:56:37;;;;;;;2.50;2.30;;;26.20;77.90;;;;;;4988936;28;20426;-83
2023/05/22 10:59:04;;;;;;;7.87;3.37;;;26.20;78.30;;;;;;4958065;28;20441;-83
2023/05/22 11:01:33;;;;;;;3.40;2.30;;;26.10;77.70;;;;;;4994227;28;20504;-82
2023/05/22 11:04:00;;;;;;;1.93;1.67;;;26.10;77.30;;;;;;4970713;28;21016;-83
2023/05/22 11:06:30;;;;;;;3.90;2.03;;;26.00;77.70;;;;;;4968173;28;20429;-84
2023/05/22 11:08:56;;;;;;;3.03;2.57;;;25.90;79.40;;;;;;4968429;28;20480;-83
2023/05/22 11:11:25;;;;;;;3.07;2.87;;;25.90;78.00;;;;;;4971254;28;20433;-84
2023/05/22 11:13:51;;;;;;;3.20;3.00;;;26.00;78.90;;;;;;4963775;28;20418;-83
2023/05/22 11:16:17;;;;;;;4.17;2.40;;;26.00;77.40;;;;;;4966974;28;20436;-84
2023/05/22 11:18:43;;;;;;;3.83;2.43;;;26.00;77.10;;;;;;4970854;28;20473;-84
2023/05/22 11:21:10;;;;;;;4.10;2.60;;;26.10;77.80;;;;;;4963917;28;20425;-83
2023/05/22 11:23:36;;;;;;;1.90;1.80;;;26.20;77.70;;;;;;4960404;28;20206;-80
2023/05/22 11:26:22;;;;;;;3.63;1.80;;;26.30;76.50;;;;;;4967281;28;20413;-84
2023/05/22 11:28:50;;;;;;;2.43;1.90;;;26.50;76.50;;;;;;4964297;28;20490;-84
2023/05/22 11:31:16;;;;;;;2.80;2.23;;;26.60;74.40;;;;;;4967875;28;20540;-83
2023/05/22 11:33:43;;;;;;;2.07;1.93;;;26.70;74.90;;;;;;4994565;28;21328;-82
2023/05/22 11:36:09;;;;;;;2.30;1.80;;;26.70;75.50;;;;;;4994892;28;20716;-84
2023/05/22 11:38:34;;;;;;;1.80;1.80;;;26.70;74.90;;;;;;4968642;28;20445;-84
2023/05/22 11:41:00;;;;;;;2.03;1.70;;;26.80;75.10;;;;;;4966454;28;20181;-83
2023/05/22 11:43:31;;;;;;;5.33;2.17;;;27.00;75.30;;;;;;4961890;28;20206;-81
2023/05/22 11:46:05;;;;;;;7.00;2.93;;;27.10;75.60;;;;;;4963645;28;20179;-79
2023/05/22 11:48:30;;;;;;;1.90;1.80;;;27.20;74.80;;;;;;4980044;28;20464;-83
2023/05/22 11:50:56;;;;;;;8.10;2.33;;;27.20;72.40;;;;;;4983332;28;20593;-82
2023/05/22 11:53:21;;;;;;;4.20;2.77;;;27.10;74.70;;;;;;4977224;28;20194;-84
2023/05/22 11:55:48;;;;;;;2.23;2.03;;;27.10;75.70;;;;;;4993410;28;20368;-80
2023/05/22 11:58:14;;;;;;;3.23;2.73;;;27.20;76.50;;;;;;4974670;28;20566;-83
2023/05/22 12:00:41;;;;;;;2.77;2.63;;;27.40;76.40;;;;;;4995264;28;20437;-83
2023/05/22 12:03:06;;;;;;;2.80;2.10;;;27.60;76.70;;;;;;4984826;28;20210;-84
2023/05/22 12:05:32;;;;;;;3.57;2.87;;;27.80;74.10;;;;;;4970609;28;20449;-79
2023/05/22 12:07:58;;;;;;;3.13;2.47;;;27.90;75.30;;;;;;4982993;28;20686;-83
2023/05/22 12:10:24;;;;;;;2.17;2.00;;;28.00;76.30;;;;;;4966225;28;20181;-84
2023/05/22 12:12:50;;;;;;;3.80;2.03;;;28.10;74.90;;;;;;4979002;28;20174;-82
2023/05/22 12:15:19;;;;;;;4.93;2.67;;;28.20;75.50;;;;;;4980275;28;20840;-81
2023/05/22 12:17:45;;;;;;;1.60;1.60;;;28.10;73.30;;;;;;4963473;28;20260;-81
2023/05/22 12:20:12;;;;;;;3.70;2.53;;;28.00;74.30;;;;;;4967743;28;20453;-80
2023/05/22 12:22:42;;;;;;;5.50;2.27;;;28.10;73.90;;;;;;4972584;28;20206;-81
2023/05/22 12:25:16;;;;;;;1.83;1.73;;;28.10;74.00;;;;;;4974206;28;20428;-81
2023/05/22 12:27:43;;;;;;;3.30;2.10;;;28.00;75.00;;;;;;4975741;28;20425;-80
2023/05/22 12:30:11;;;;;;;2.60;2.10;;;28.20;75.10;;;;;;4991612;28;20505;-78
2023/05/22 12:32:39;;;;;;;1.90;1.80;;;28.30;73.80;;;;;;4967237;28;20467;-79
2023/05/22 12:35:04;;;;;;;2.53;2.40;;;28.50;74.50;;;;;;4971029;28;20437;-82
2023/05/22 12:37:32;;;;;;;1.90;1.75;;;28.60;74.60;;;;;;4988057;28;20413;-82
2023/05/22 12:40:00;;;;;;;2.90;2.50;;;28.70;71.50;;;;;;4980132;28;20189;-82
2023/05/22 12:42:27;;;;;;;4.93;2.83;;;28.70;71.00;;;;;;4969855;28;20934;-84
2023/05/22 12:44:53;;;;;;;2.40;1.93;;;28.60;71.50;;;;;;4962909;28;20426;-82
2023/05/22 12:47:19;;;;;;;4.67;2.77;;;28.60;71.00;;;;;;4963038;28;20417;-80
2023/05/22 12:49:45;;;;;;;3.53;2.30;;;28.60;71.90;;;;;;4991210;28;20520;-82
2023/05/22 12:52:10;;;;;;;2.57;1.90;;;28.70;74.30;;;;;;4970837;28;20265;-81
2023/05/22 12:54:36;;;;;;;6.33;2.17;;;28.90;72.20;;;;;;4973102;28;20662;-81
2023/05/22 12:57:01;;;;;;;2.47;2.07;;;29.20;73.60;;;;;;4970982;28;20181;-81
2023/05/22 12:59:26;;;;;;;2.20;1.70;;;29.30;69.40;;;;;;4967557;28;20225;-82
2023/05/22 13:01:52;;;;;;;2.63;2.10;;;29.30;69.60;;;;;;4965209;28;20178;-80
2023/05/22 13:04:18;;;;;;;2.30;2.10;;;29.30;68.20;;;;;;4961572;28;20747;-82
2023/05/22 13:06:43;;;;;;;3.37;2.60;;;29.20;67.70;;;;;;4989712;28;20204;-80
2023/05/22 13:09:09;;;;;;;2.10;1.77;;;29.10;69.00;;;;;;4984409;28;20194;-82
2023/05/22 13:11:35;;;;;;;2.53;2.10;;;29.10;70.90;;;;;;4982657;28;20637;-78
2023/05/22 13:14:00;;;;;;;2.23;1.93;;;29.10;69.80;;;;;;4986529;28;20729;-80
2023/05/22 13:16:26;;;;;;;2.90;2.07;;;29.10;70.00;;;;;;4966589;28;20244;-81
2023/05/22 13:18:51;;;;;;;2.70;1.70;;;29.10;68.40;;;;;;4982742;28;20269;-81
2023/05/22 13:21:17;;;;;;;8.30;1.97;;;29.10;71.00;;;;;;4973162;28;20272;-80
2023/05/22 13:23:43;;;;;;;6.50;2.33;;;29.10;69.60;;;;;;4963330;28;20629;-78
2023/05/22 13:26:08;;;;;;;2.13;1.97;;;29.20;70.80;;;;;;4961924;28;20182;-81
2023/05/22 13:28:34;;;;;;;1.53;1.43;;;29.40;71.00;;;;;;4958145;28;21030;-80
2023/05/22 13:30:59;;;;;;;2.03;1.70;;;29.60;68.90;;;;;;4970217;28;20200;-82
2023/05/22 13:33:25;;;;;;;1.73;1.63;;;29.50;68.60;;;;;;4965758;28;20183;-82
2023/05/22 13:35:51;;;;;;;2.57;1.77;;;29.60;68.30;;;;;;4965146;28;20205;-80
2023/05/22 13:38:16;;;;;;;2.20;1.97;;;29.60;67.00;;;;;;4985158;28;20198;-81
2023/05/22 13:40:42;;;;;;;3.63;2.63;;;29.60;69.50;;;;;;4972605;28;20833;-81
2023/05/22 13:43:08;;;;;;;1.60;1.50;;;29.80;68.90;;;;;;4965737;28;20194;-83
2023/05/22 13:45:33;;;;;;;3.67;1.87;;;29.90;66.40;;;;;;4967518;28;20731;-79
2023/05/22 13:47:58;;;;;;;1.80;1.70;;;30.00;69.30;;;;;;4980046;28;20610;-82
2023/05/22 13:50:24;;;;;;;3.43;1.90;;;30.20;69.70;;;;;;4991881;28;20847;-81
2023/05/22 13:52:49;;;;;;;7.37;2.07;;;30.30;65.90;;;;;;4971921;28;20189;-82
2023/05/22 13:55:15;;;;;;;1.83;1.77;;;30.30;65.10;;;;;;4969070;28;20240;-83
2023/05/22 13:57:40;;;;;;;5.80;2.23;;;30.20;65.10;;;;;;4985956;28;20190;-83
2023/05/22 14:00:08;;;;;;;1.87;1.80;;;30.10;63.50;;;;;;4963522;28;20185;-82
2023/05/22 14:02:33;;;;;;;2.73;2.20;;;30.10;64.30;;;;;;4986548;28;20198;-82
2023/05/22 14:04:59;;;;;;;4.03;2.40;;;30.10;66.20;;;;;;4966591;28;20452;-83
2023/05/22 14:07:24;;;;;;;2.07;1.93;;;30.30;66.40;;;;;;4974516;28;20266;-81
2023/05/22 14:09:50;;;;;;;2.40;2.20;;;30.40;63.50;;;;;;4970356;28;20181;-83
2023/05/22 14:12:15;;;;;;;1.30;1.20;;;30.50;65.40;;;;;;4981454;28;20185;-81
2023/05/22 14:14:41;;;;;;;2.20;2.00;;;30.60;65.90;;;;;;4967566;28;20187;-79
2023/05/22 14:17:07;;;;;;;1.53;1.43;;;30.70;65.50;;;;;;4972079;28;20193;-82
2023/05/22 14:19:33;;;;;;;2.20;1.90;;;30.70;64.90;;;;;;4967488;28;20257;-84
2023/05/22 14:21:58;;;;;;;1.90;1.80;;;30.70;62.80;;;;;;4993605;28;20449;-80
2023/05/22 14:24:24;;;;;;;2.33;1.40;;;30.70;65.40;;;;;;4967543;28;20228;-83
2023/05/22 14:26:50;;;;;;;2.03;1.70;;;30.70;65.80;;;;;;4979722;28;20610;-83
2023/05/22 14:29:15;;;;;;;2.87;1.90;;;30.70;64.90;;;;;;4966793;28;20403;-83
2023/05/22 14:31:48;;;;;;;4.17;2.23;;;30.80;64.60;;;;;;4966164;28;20181;-83
2023/05/22 14:34:14;;;;;;;1.90;1.83;;;30.80;63.90;;;;;;4963614;28;20592;-82
2023/05/22 14:36:40;;;;;;;2.33;1.93;;;30.80;66.00;;;;;;4974990;28;20425;-83
2023/05/22 14:39:06;;;;;;;1.63;1.57;;;30.90;64.40;;;;;;4972949;28;21058;-78
2023/05/22 14:41:31;;;;;;;4.40;1.90;;;30.90;64.20;;;;;;4967167;28;20191;-84
2023/05/22 14:43:57;;;;;;;3.10;2.07;;;31.00;65.50;;;;;;4968500;28;20260;-83
2023/05/22 14:46:22;;;;;;;1.90;1.80;;;31.10;65.80;;;;;;4968831;28;20182;-80
2023/05/22 14:48:48;;;;;;;3.63;2.20;;;31.20;65.70;;;;;;4964592;28;20646;-81
2023/05/22 14:51:13;;;;;;;2.20;1.87;;;31.20;65.90;;;;;;4968432;28;20185;-83
2023/05/22 14:53:39;;;;;;;3.23;2.03;;;31.20;65.20;;;;;;4967232;28;20629;-81
2023/05/22 14:56:05;;;;;;;1.87;1.60;;;31.20;64.20;;;;;;4971892;28;20239;-80
2023/05/22 14:58:31;;;;;;;2.50;2.30;;;31.20;63.60;;;;;;4970240;28;20449;-83
2023/05/22 15:00:56;;;;;;;2.90;2.53;;;31.30;64.70;;;;;;4964222;28;20186;-81
2023/05/22 15:03:22;;;;;;;1.70;1.53;;;31.40;64.30;;;;;;4986743;28;20468;-81
2023/05/22 15:05:48;;;;;;;4.37;3.20;;;31.60;64.50;;;;;;4982698;28;20265;-82
2023/05/22 15:08:13;;;;;;;4.47;2.17;;;31.60;63.20;;;;;;4961537;28;20269;-80
2023/05/22 15:10:39;;;;;;;3.07;2.03;;;31.70;62.90;;;;;;4956741;28;20707;-79
2023/05/22 15:13:05;;;;;;;3.23;1.47;;;31.60;62.50;;;;;;4968280;28;20178;-82
2023/05/22 15:15:30;;;;;;;2.47;1.77;;;31.60;63.40;;;;;;4961177;28;20183;-84
2023/05/22 15:17:56;;;;;;;3.87;2.47;;;31.60;63.20;;;;;;4970089;28;20230;-82
2023/05/22 15:20:21;;;;;;;6.87;2.43;;;31.70;64.20;;;;;;4963733;28;20182;-83
2023/05/22 15:22:47;;;;;;;2.43;2.03;;;31.80;63.60;;;;;;4966105;28;20592;-80
2023/05/22 15:25:15;;;;;;;2.07;1.90;;;31.80;63.30;;;;;;4975049;28;20170;-83
2023/05/22 15:27:41;;;;;;;1.80;1.80;;;31.80;61.60;;;;;;4967446;28;20178;-83
2023/05/22 15:30:08;;;;;;;1.60;1.47;;;31.70;63.00;;;;;;4970906;28;20476;-80
2023/05/22 15:32:35;;;;;;;1.30;1.20;;;31.50;61.10;;;;;;4971996;28;20443;-85
2023/05/22 15:35:00;;;;;;;1.33;1.23;;;31.20;62.40;;;;;;4983596;28;20557;-82
2023/05/22 15:37:26;;;;;;;2.07;1.93;;;31.10;64.30;;;;;;4993091;28;20519;-82
2023/05/22 15:39:52;;;;;;;6.23;2.07;;;31.20;63.70;;;;;;4965879;28;20178;-83
2023/05/22 15:42:17;;;;;;;9.10;2.00;;;31.20;64.40;;;;;;4986264;28;20189;-82
2023/05/22 15:44:43;;;;;;;5.00;2.47;;;31.20;63.30;;;;;;4965233;28;20185;-79
2023/05/22 15:47:08;;;;;;;2.27;1.90;;;31.00;62.40;;;;;;4971330;28;20182;-81
2023/05/22 15:49:34;;;;;;;2.07;1.90;;;30.70;64.40;;;;;;4959225;28;20198;-82
2023/05/22 15:51:59;;;;;;;2.07;1.93;;;30.40;66.20;;;;;;4975099;28;20269;-83
2023/05/22 15:54:25;;;;;;;2.03;1.90;;;30.20;68.00;;;;;;4962199;28;20241;-83
2023/05/22 15:56:50;;;;;;;3.33;2.03;;;30.10;67.70;;;;;;4983624;28;20181;-79
2023/05/22 15:59:16;;;;;;;2.60;2.47;;;29.70;68.00;;;;;;4964630;28;20684;-82
2023/05/22 16:01:41;;;;;;;1.83;1.73;;;29.40;68.70;;;;;;4963750;28;20179;-83
2023/05/22 16:04:07;;;;;;;1.77;1.70;;;29.00;68.50;;;;;;4962798;28;20206;-82
2023/05/22 16:06:32;;;;;;;4.57;2.13;;;28.70;69.00;;;;;;4976284;28;20184;-82
2023/05/22 16:08:58;;;;;;;1.70;1.60;;;28.40;69.80;;;;;;4988637;28;20213;-83
2023/05/22 16:11:23;;;;;;;1.83;1.73;;;28.20;70.40;;;;;;4959725;28;20337;-83
2023/05/22 16:13:49;;;;;;;2.50;1.90;;;28.20;70.90;;;;;;4972124;28;20247;-79
2023/05/22 16:16:16;;;;;;;2.87;2.67;;;28.30;70.80;;;;;;4960657;28;20186;-83
2023/05/22 16:21:06;;;;;;;3.37;2.07;;;28.10;70.60;;;;;;5005858;23;20492;-83
2023/05/22 16:23:32;;;;;;;3.53;2.07;;;28.10;70.70;;;;;;4983672;28;20575;-85
2023/05/22 16:25:57;;;;;;;3.27;2.27;;;28.10;71.80;;;;;;4986183;28;20258;-83
2023/05/22 16:28:23;;;;;;;4.00;2.03;;;28.20;70.70;;;;;;4986192;28;20182;-83
2023/05/22 16:30:48;;;;;;;2.03;1.83;;;28.30;71.40;;;;;;4981689;28;20697;-84
2023/05/22 16:33:14;;;;;;;2.23;1.73;;;28.30;70.90;;;;;;4984546;28;20181;-84
2023/05/22 16:35:42;;;;;;;2.80;2.17;;;28.40;70.20;;;;;;4976342;28;20178;-85
2023/05/22 16:38:10;;;;;;;1.50;1.40;;;28.50;70.40;;;;;;4975831;28;20206;-84
2023/05/22 16:40:36;;;;;;;2.07;1.73;;;28.50;69.40;;;;;;4971211;28;20444;-84
2023/05/22 16:43:03;;;;;;;1.53;1.47;;;28.60;70.10;;;;;;4978871;28;20495;-85
2023/05/22 16:45:28;;;;;;;3.97;1.80;;;28.60;70.60;;;;;;4987590;28;20201;-85
2023/05/22 16:47:54;;;;;;;3.77;2.07;;;28.60;70.10;;;;;;4999503;28;20497;-84